Time;durP1;ratioP1;P1;durP2;ratioP2;P2;SDS_P1;SDS_P2;PMS_P1;PMS_P2;Temp;Humidity;BMP_temperature;BMP_pressure;BME280_temperature;BME280_humidity;BME280_pressure;Samples;Min_cycle;Max_cycle;Signal;HPM_P1;HPM_P2
2022/08/29 00:01:08;;;;;;;3.72;2.20;;;;;;;;;;4993034;28;94853;-73
2022/08/29 00:03:35;;;;;;;6.85;2.30;;;;;;;;;;4993595;28;96241;-74
2022/08/29 00:06:02;;;;;;;4.40;2.03;;;;;;;;;;4993976;28;94078;-73
2022/08/29 00:08:28;;;;;;;4.80;2.45;;;;;;;;;;4994177;28;92434;-73
2022/08/29 00:10:55;;;;;;;4.93;2.28;;;;;;;;;;4992481;28;92986;-74
2022/08/29 00:13:21;;;;;;;6.03;2.80;;;;;;;;;;4997444;28;95697;-73
2022/08/29 00:15:48;;;;;;;10.48;2.63;;;;;;;;;;4993726;28;93120;-73
2022/08/29 00:18:15;;;;;;;6.30;2.50;;;;;;;;;;4994885;28;92779;-73
2022/08/29 00:20:42;;;;;;;3.67;2.30;;;;;;;;;;4993609;28;92868;-73
2022/08/29 00:23:09;;;;;;;4.97;2.70;;;;;;;;;;4993299;28;92946;-74
2022/08/29 00:25:37;;;;;;;6.15;2.45;;;;;;;;;;4991225;28;96696;-73
2022/08/29 00:28:03;;;;;;;3.20;2.22;;;;;;;;;;4994429;28;92614;-74
2022/08/29 00:30:34;;;;;;;5.50;2.28;;;;;;;;;;4993687;28;94221;-74
2022/08/29 00:33:00;;;;;;;3.13;2.70;;;;;;;;;;4993429;28;94429;-73
2022/08/29 00:35:28;;;;;;;5.20;2.20;;;;;;;;;;4997422;28;92470;-73
2022/08/29 00:37:56;;;;;;;9.48;2.45;;;;;;;;;;4993137;28;94195;-74
2022/08/29 00:40:24;;;;;;;5.05;2.60;;;;;;;;;;4994116;28;92544;-74
2022/08/29 00:42:51;;;;;;;4.00;2.45;;;;;;;;;;4994418;28;94068;-73
2022/08/29 00:45:17;;;;;;;8.70;3.38;;;;;;;;;;4994067;28;96267;-74
2022/08/29 00:47:51;;;;;;;9.18;3.00;;;;;;;;;;4993473;28;92482;-74
2022/08/29 00:50:41;;;;;;;5.07;2.35;;;;;;;;;;4992646;28;95986;-73
2022/08/29 00:53:09;;;;;;;10.65;3.00;;;;;;;;;;4993143;28;94295;-73
2022/08/29 00:55:36;;;;;;;10.15;2.90;;;;;;;;;;4994043;28;92401;-73
2022/08/29 00:58:17;;;;;;;5.53;2.35;;;;;;;;;;4996226;28;95021;-74
2022/08/29 01:00:43;;;;;;;8.13;2.67;;;;;;;;;;4995286;28;92501;-73
2022/08/29 01:03:10;;;;;;;9.90;2.55;;;;;;;;;;4994065;28;93731;-73
2022/08/29 01:05:36;;;;;;;4.57;2.92;;;;;;;;;;4992786;28;94184;-73
2022/08/29 01:08:03;;;;;;;5.68;2.38;;;;;;;;;;4993943;28;91796;-73
2022/08/29 01:13:15;;;;;;;5.10;2.05;;;;;;;;;;4989176;28;94355;-73
2022/08/29 01:15:42;;;;;;;5.07;2.50;;;;;;;;;;4995087;28;95016;-73
2022/08/29 01:18:10;;;;;;;6.70;2.35;;;;;;;;;;4997941;28;95454;-73
2022/08/29 01:20:46;;;;;;;6.93;2.53;;;;;;;;;;4998946;28;94266;-74
2022/08/29 01:23:15;;;;;;;9.75;3.13;;;;;;;;;;4997152;28;93161;-74
2022/08/29 01:25:44;;;;;;;11.70;3.22;;;;;;;;;;4996738;28;94125;-73
2022/08/29 01:28:14;;;;;;;2.58;2.17;;;;;;;;;;4994933;28;94462;-73
2022/08/29 01:31:11;;;;;;;6.07;2.88;;;;;;;;;;4996492;28;94622;-73
2022/08/29 01:33:45;;;;;;;8.52;2.28;;;;;;;;;;4983997;28;92480;-73
2022/08/29 01:36:16;;;;;;;8.00;2.47;;;;;;;;;;4997506;28;92506;-73
2022/08/29 01:38:43;;;;;;;4.03;2.27;;;;;;;;;;4996961;28;93955;-73
2022/08/29 01:41:11;;;;;;;4.30;2.28;;;;;;;;;;4993877;28;96911;-73
2022/08/29 01:43:40;;;;;;;2.78;2.30;;;;;;;;;;4999700;28;92536;-73
2022/08/29 01:46:06;;;;;;;6.65;2.78;;;;;;;;;;4990778;28;92525;-74
2022/08/29 01:48:34;;;;;;;3.90;2.40;;;;;;;;;;4996280;28;92349;-73
2022/08/29 01:51:01;;;;;;;8.05;2.95;;;;;;;;;;4997121;28;93732;-74
2022/08/29 01:53:27;;;;;;;16.10;2.92;;;;;;;;;;4996400;28;93217;-73
2022/08/29 01:55:54;;;;;;;10.02;2.47;;;;;;;;;;4995392;28;92431;-73
2022/08/29 01:58:20;;;;;;;6.25;2.80;;;;;;;;;;4996829;28;94037;-73
2022/08/29 02:00:47;;;;;;;3.13;2.42;;;;;;;;;;4995942;28;93261;-74
2022/08/29 02:03:13;;;;;;;4.60;2.50;;;;;;;;;;4995739;28;92431;-74
2022/08/29 02:05:40;;;;;;;5.70;2.58;;;;;;;;;;4997453;28;94714;-74
2022/08/29 02:08:06;;;;;;;4.13;2.58;;;;;;;;;;4996269;28;92453;-74
2022/08/29 02:10:32;;;;;;;8.23;2.88;;;;;;;;;;4995588;28;93735;-74
2022/08/29 02:12:59;;;;;;;3.67;2.50;;;;;;;;;;4995389;28;94722;-74
2022/08/29 02:15:27;;;;;;;4.85;2.53;;;;;;;;;;4995454;28;92545;-73
2022/08/29 02:17:55;;;;;;;6.00;3.00;;;;;;;;;;4995762;28;92878;-73
2022/08/29 02:20:21;;;;;;;5.70;2.92;;;;;;;;;;4995906;28;93965;-74
2022/08/29 02:22:47;;;;;;;5.93;3.30;;;;;;;;;;4995760;28;91723;-74
2022/08/29 02:27:59;;;;;;;4.00;2.70;;;;;;;;;;4995812;28;92587;-74
2022/08/29 02:30:27;;;;;;;8.25;3.03;;;;;;;;;;4993825;28;94710;-73
2022/08/29 02:32:54;;;;;;;12.13;3.00;;;;;;;;;;4995418;28;94274;-73
2022/08/29 02:35:21;;;;;;;3.42;2.42;;;;;;;;;;4995801;28;94067;-73
2022/08/29 02:37:49;;;;;;;4.30;2.90;;;;;;;;;;4994858;28;94010;-74
2022/08/29 02:40:15;;;;;;;5.38;2.60;;;;;;;;;;4995540;28;93376;-73
2022/08/29 02:42:42;;;;;;;7.55;2.90;;;;;;;;;;4996139;28;92475;-73
2022/08/29 02:45:09;;;;;;;6.25;3.05;;;;;;;;;;4995142;28;93963;-74
2022/08/29 02:47:39;;;;;;;5.63;3.38;;;;;;;;;;4998742;28;95842;-74
2022/08/29 02:50:07;;;;;;;5.65;3.00;;;;;;;;;;4996017;28;93591;-73
2022/08/29 02:52:33;;;;;;;7.57;3.65;;;;;;;;;;4994815;28;94644;-73
2022/08/29 02:55:02;;;;;;;8.70;3.13;;;;;;;;;;4993599;28;94955;-74
2022/08/29 02:57:29;;;;;;;6.13;3.70;;;;;;;;;;4995606;28;96300;-73
2022/08/29 02:59:55;;;;;;;6.38;3.00;;;;;;;;;;4995232;28;92890;-73
2022/08/29 03:02:22;;;;;;;5.35;2.83;;;;;;;;;;4994766;28;92532;-73
2022/08/29 03:04:50;;;;;;;9.68;3.38;;;;;;;;;;4994582;28;92840;-73
2022/08/29 03:07:16;;;;;;;5.43;3.10;;;;;;;;;;4994754;28;94642;-74
2022/08/29 03:09:43;;;;;;;8.93;3.10;;;;;;;;;;4998321;28;93128;-74
2022/08/29 03:12:09;;;;;;;3.17;2.67;;;;;;;;;;4994881;28;93416;-73
2022/08/29 03:14:36;;;;;;;4.20;3.00;;;;;;;;;;4995675;28;93072;-74
2022/08/29 03:17:02;;;;;;;5.70;3.22;;;;;;;;;;4995721;28;93132;-74
2022/08/29 03:19:28;;;;;;;5.60;3.00;;;;;;;;;;4986496;28;96355;-73
2022/08/29 03:21:55;;;;;;;5.75;3.08;;;;;;;;;;4994892;28;92555;-73
2022/08/29 03:24:21;;;;;;;3.47;2.75;;;;;;;;;;4995250;28;93033;-73
2022/08/29 03:26:52;;;;;;;5.60;3.05;;;;;;;;;;4993834;28;94308;-73
2022/08/29 03:29:22;;;;;;;3.03;2.72;;;;;;;;;;4994452;28;92457;-74
2022/08/29 03:31:48;;;;;;;5.18;2.63;;;;;;;;;;4997608;28;94128;-73
2022/08/29 03:34:15;;;;;;;7.45;3.00;;;;;;;;;;4994517;28;92966;-73
2022/08/29 03:36:41;;;;;;;5.93;2.72;;;;;;;;;;4994957;28;93128;-73
2022/08/29 03:39:08;;;;;;;4.45;3.60;;;;;;;;;;4994801;28;94374;-74
2022/08/29 03:41:34;;;;;;;6.63;2.78;;;;;;;;;;4994016;28;93504;-74
2022/08/29 03:44:02;;;;;;;3.95;2.90;;;;;;;;;;4993327;28;95433;-74
2022/08/29 03:46:28;;;;;;;7.63;2.80;;;;;;;;;;4994654;28;93424;-74
2022/08/29 03:48:54;;;;;;;4.63;3.03;;;;;;;;;;4991867;28;92564;-74
2022/08/29 03:51:21;;;;;;;3.38;2.65;;;;;;;;;;4995419;28;93956;-74
2022/08/29 03:53:50;;;;;;;7.82;2.92;;;;;;;;;;4996410;28;93116;-74
2022/08/29 03:56:16;;;;;;;9.65;2.72;;;;;;;;;;4994908;28;93808;-73
2022/08/29 03:58:44;;;;;;;3.63;2.92;;;;;;;;;;4994344;28;94104;-74
2022/08/29 04:01:18;;;;;;;8.50;2.88;;;;;;;;;;4987742;28;93024;-73
2022/08/29 04:03:44;;;;;;;4.43;2.88;;;;;;;;;;4994567;28;92526;-74
2022/08/29 04:06:11;;;;;;;4.70;2.45;;;;;;;;;;4994445;28;93275;-73
2022/08/29 04:08:37;;;;;;;4.78;2.80;;;;;;;;;;4997900;28;94959;-73
2022/08/29 04:11:10;;;;;;;5.47;3.03;;;;;;;;;;4994583;28;96328;-73
2022/08/29 04:13:36;;;;;;;7.93;2.60;;;;;;;;;;4994040;28;94651;-74
2022/08/29 04:16:08;;;;;;;6.88;2.95;;;;;;;;;;4996393;28;93505;-73
2022/08/29 04:18:35;;;;;;;5.20;2.60;;;;;;;;;;4993134;28;93881;-73
2022/08/29 04:21:01;;;;;;;11.57;3.05;;;;;;;;;;4994280;28;92520;-74
2022/08/29 04:23:27;;;;;;;4.38;2.70;;;;;;;;;;4993862;28;93784;-73
2022/08/29 04:25:54;;;;;;;7.63;3.45;;;;;;;;;;4994616;28;93602;-73
2022/08/29 04:28:40;;;;;;;6.40;3.55;;;;;;;;;;4993705;28;94005;-74
2022/08/29 04:31:10;;;;;;;6.07;2.95;;;;;;;;;;4993406;28;94076;-73
2022/08/29 04:33:37;;;;;;;6.75;2.83;;;;;;;;;;4985474;28;96491;-73
2022/08/29 04:36:04;;;;;;;8.82;2.63;;;;;;;;;;4990704;28;92481;-73
2022/08/29 04:38:31;;;;;;;8.85;2.67;;;;;;;;;;4994107;28;94298;-74
2022/08/29 04:40:58;;;;;;;3.03;2.70;;;;;;;;;;4994624;28;92512;-73
2022/08/29 04:43:24;;;;;;;9.27;3.30;;;;;;;;;;4993373;28;93085;-73
2022/08/29 04:45:54;;;;;;;5.47;2.65;;;;;;;;;;4993648;28;94247;-73
2022/08/29 04:48:20;;;;;;;6.05;2.90;;;;;;;;;;4993958;28;92483;-73
2022/08/29 04:50:55;;;;;;;7.15;2.90;;;;;;;;;;4997013;28;94178;-73
2022/08/29 04:53:22;;;;;;;10.27;2.97;;;;;;;;;;4996795;28;94232;-73
2022/08/29 04:55:56;;;;;;;7.07;3.28;;;;;;;;;;4997195;28;92386;-74
2022/08/29 04:58:24;;;;;;;7.57;3.20;;;;;;;;;;5002221;28;94792;-73
2022/08/29 05:00:52;;;;;;;4.10;2.95;;;;;;;;;;4999858;28;92446;-74
2022/08/29 05:03:19;;;;;;;4.82;2.78;;;;;;;;;;4997599;28;93907;-73
2022/08/29 05:05:53;;;;;;;5.55;3.50;;;;;;;;;;4995952;28;93053;-73
2022/08/29 05:08:20;;;;;;;4.97;3.10;;;;;;;;;;4996856;28;92552;-73
2022/08/29 05:10:46;;;;;;;4.70;2.80;;;;;;;;;;4997023;28;92873;-73
2022/08/29 05:13:12;;;;;;;5.65;3.00;;;;;;;;;;4996358;28;94227;-74
2022/08/29 05:15:39;;;;;;;7.53;3.00;;;;;;;;;;4997997;28;92656;-73
2022/08/29 05:18:05;;;;;;;5.90;2.97;;;;;;;;;;4997282;28;93144;-73
2022/08/29 05:20:31;;;;;;;5.20;3.10;;;;;;;;;;4999221;28;94027;-74
2022/08/29 05:22:58;;;;;;;6.82;2.88;;;;;;;;;;4995072;28;96169;-74
2022/08/29 05:25:24;;;;;;;3.30;3.00;;;;;;;;;;4996173;28;93188;-73
2022/08/29 05:27:51;;;;;;;12.27;2.80;;;;;;;;;;4997076;28;94114;-73
2022/08/29 05:30:19;;;;;;;3.28;2.75;;;;;;;;;;4996559;28;93924;-73
2022/08/29 05:33:00;;;;;;;5.72;3.00;;;;;;;;;;4988191;28;94226;-74
2022/08/29 05:35:27;;;;;;;11.45;4.07;;;;;;;;;;4993921;28;92481;-73
2022/08/29 05:37:53;;;;;;;6.72;2.97;;;;;;;;;;4996747;28;94013;-73
2022/08/29 05:40:20;;;;;;;9.18;3.17;;;;;;;;;;4996153;28;93552;-72
2022/08/29 05:42:46;;;;;;;4.40;2.80;;;;;;;;;;5001163;28;93588;-72
2022/08/29 05:45:14;;;;;;;5.95;3.35;;;;;;;;;;4996098;28;93141;-73
2022/08/29 05:47:41;;;;;;;6.95;3.08;;;;;;;;;;4992993;28;97648;-72
2022/08/29 05:50:09;;;;;;;6.22;3.75;;;;;;;;;;4995117;28;95242;-73
2022/08/29 05:52:35;;;;;;;12.25;3.60;;;;;;;;;;4992409;28;93909;-73
2022/08/29 05:55:02;;;;;;;4.65;3.08;;;;;;;;;;4981769;28;93033;-73
2022/08/29 05:57:29;;;;;;;5.07;3.05;;;;;;;;;;4994017;28;93950;-73
2022/08/29 05:59:56;;;;;;;8.45;3.42;;;;;;;;;;4989483;28;94242;-73
2022/08/29 06:02:23;;;;;;;11.32;3.80;;;;;;;;;;4987593;28;92667;-73
2022/08/29 06:04:50;;;;;;;10.77;3.38;;;;;;;;;;4996414;28;93932;-73
2022/08/29 06:07:17;;;;;;;9.48;3.80;;;;;;;;;;5000959;28;92500;-73
2022/08/29 06:09:44;;;;;;;10.43;3.50;;;;;;;;;;4991565;28;94290;-73
2022/08/29 06:12:12;;;;;;;19.35;3.92;;;;;;;;;;4988273;28;96133;-73
2022/08/29 06:14:38;;;;;;;5.68;2.95;;;;;;;;;;4992915;28;93460;-73
2022/08/29 06:17:05;;;;;;;11.80;3.35;;;;;;;;;;4986472;28;94119;-73
2022/08/29 06:19:34;;;;;;;5.60;2.58;;;;;;;;;;4994750;28;93932;-73
2022/08/29 06:22:02;;;;;;;7.60;3.40;;;;;;;;;;4991456;28;92521;-73
2022/08/29 06:24:35;;;;;;;4.85;3.20;;;;;;;;;;4985496;28;92944;-73
2022/08/29 06:27:02;;;;;;;5.45;2.70;;;;;;;;;;4987413;28;92495;-73
2022/08/29 06:29:28;;;;;;;8.07;3.88;;;;;;;;;;4989726;28;94033;-73
2022/08/29 06:31:55;;;;;;;9.27;3.70;;;;;;;;;;4994958;28;94221;-73
2022/08/29 06:34:22;;;;;;;8.65;3.30;;;;;;;;;;4996144;28;92528;-73
2022/08/29 06:36:50;;;;;;;7.18;3.20;;;;;;;;;;4992181;28;95181;-73
2022/08/29 06:39:17;;;;;;;6.78;3.05;;;;;;;;;;4995851;28;94091;-73
2022/08/29 06:41:44;;;;;;;5.07;3.55;;;;;;;;;;4988895;28;92484;-73
2022/08/29 06:44:12;;;;;;;5.53;2.92;;;;;;;;;;4994931;28;93799;-73
2022/08/29 06:46:39;;;;;;;9.50;3.30;;;;;;;;;;4992196;28;94004;-72
2022/08/29 06:49:07;;;;;;;9.15;3.35;;;;;;;;;;4994944;28;93493;-73
2022/08/29 06:51:34;;;;;;;7.25;3.75;;;;;;;;;;4989656;28;94389;-73
2022/08/29 06:54:02;;;;;;;10.85;4.07;;;;;;;;;;4995704;28;91681;-73
2022/08/29 06:56:33;;;;;;;14.60;3.58;;;;;;;;;;4985868;28;94491;-73
2022/08/29 06:59:02;;;;;;;7.85;3.70;;;;;;;;;;4992312;28;94094;-73
2022/08/29 07:01:28;;;;;;;11.10;3.53;;;;;;;;;;4987596;28;94943;-73
2022/08/29 07:03:56;;;;;;;8.85;3.40;;;;;;;;;;4989436;28;96581;-73
2022/08/29 07:06:22;;;;;;;14.80;4.43;;;;;;;;;;4995438;28;93253;-73
2022/08/29 07:08:49;;;;;;;5.43;3.45;;;;;;;;;;4997982;28;92355;-73
2022/08/29 07:11:21;;;;;;;;;;;;;;;;;;4988518;28;94296;-73
2022/08/29 07:13:47;;;;;;;9.00;3.38;;;;;;;;;;4995368;28;119042;-73
2022/08/29 07:16:15;;;;;;;6.50;4.05;;;;;;;;;;4993720;28;93932;-74
2022/08/29 07:18:42;;;;;;;6.38;4.13;;;;;;;;;;4994452;28;93288;-73
2022/08/29 07:21:10;;;;;;;3.55;2.65;;;;;;;;;;4984435;28;92916;-73
2022/08/29 07:23:37;;;;;;;6.05;3.85;;;;;;;;;;4993252;28;93800;-73
2022/08/29 07:26:07;;;;;;;7.65;3.20;;;;;;;;;;4988044;28;95868;-74
2022/08/29 07:28:34;;;;;;;7.38;3.65;;;;;;;;;;4988729;28;92414;-73
2022/08/29 07:31:03;;;;;;;9.73;3.10;;;;;;;;;;4997040;28;92970;-73
2022/08/29 07:33:30;;;;;;;8.25;3.47;;;;;;;;;;4986427;28;92472;-73
2022/08/29 07:35:57;;;;;;;6.90;2.97;;;;;;;;;;4994723;28;93912;-74
2022/08/29 07:38:29;;;;;;;5.15;3.17;;;;;;;;;;4978185;28;95700;-73
2022/08/29 07:40:59;;;;;;;7.10;3.47;;;;;;;;;;4987922;28;92905;-73
2022/08/29 07:43:26;;;;;;;11.05;3.53;;;;;;;;;;4995389;28;93711;-73
2022/08/29 07:45:53;;;;;;;9.38;4.00;;;;;;;;;;4992680;28;94290;-74
2022/08/29 07:48:20;;;;;;;6.88;3.60;;;;;;;;;;4994493;28;92484;-73
2022/08/29 07:50:48;;;;;;;8.43;3.47;;;;;;;;;;4993078;28;95323;-73
2022/08/29 07:53:15;;;;;;;4.57;3.33;;;;;;;;;;4993303;28;93437;-73
2022/08/29 07:55:42;;;;;;;4.10;3.17;;;;;;;;;;4992515;28;93784;-73
2022/08/29 07:58:09;;;;;;;6.75;3.45;;;;;;;;;;4994740;28;93329;-73
2022/08/29 08:00:35;;;;;;;4.60;3.33;;;;;;;;;;4992242;28;92480;-73
2022/08/29 08:03:02;;;;;;;7.18;3.83;;;;;;;;;;4994420;28;94222;-73
2022/08/29 08:05:28;;;;;;;7.15;3.40;;;;;;;;;;4994576;28;93003;-73
2022/08/29 08:07:55;;;;;;;8.27;3.67;;;;;;;;;;4992670;28;93792;-73
2022/08/29 08:10:21;;;;;;;8.93;4.18;;;;;;;;;;4994796;28;92463;-73
2022/08/29 08:12:48;;;;;;;6.55;3.40;;;;;;;;;;4992690;28;94224;-73
2022/08/29 08:15:15;;;;;;;11.15;3.92;;;;;;;;;;4993001;28;94866;-73
2022/08/29 08:17:41;;;;;;;7.63;3.47;;;;;;;;;;4992259;28;94134;-73
2022/08/29 08:20:10;;;;;;;10.85;3.80;;;;;;;;;;4989327;28;92517;-73
2022/08/29 08:22:37;;;;;;;8.75;4.00;;;;;;;;;;4992771;28;94038;-73
2022/08/29 08:25:04;;;;;;;5.20;4.10;;;;;;;;;;4993394;28;93369;-73
2022/08/29 08:27:31;;;;;;;8.85;3.85;;;;;;;;;;4993215;28;92504;-73
2022/08/29 08:29:58;;;;;;;10.43;4.28;;;;;;;;;;4993083;28;92812;-73
2022/08/29 08:32:25;;;;;;;9.27;3.70;;;;;;;;;;4988522;28;93489;-73
2022/08/29 08:34:58;;;;;;;7.72;3.28;;;;;;;;;;4991300;28;92601;-73
2022/08/29 08:37:24;;;;;;;5.35;3.22;;;;;;;;;;4993142;28;94358;-73
2022/08/29 08:39:57;;;;;;;9.35;3.55;;;;;;;;;;4990563;28;94918;-74
2022/08/29 08:42:31;;;;;;;12.10;4.00;;;;;;;;;;4993135;28;96235;-74
2022/08/29 08:44:57;;;;;;;9.48;3.42;;;;;;;;;;4993570;28;94563;-73
2022/08/29 08:47:25;;;;;;;9.15;3.08;;;;;;;;;;4988618;28;92794;-73
2022/08/29 08:49:55;;;;;;;6.15;3.28;;;;;;;;;;4986688;28;94091;-73
2022/08/29 08:52:26;;;;;;;7.32;3.30;;;;;;;;;;4993739;28;92456;-73
2022/08/29 08:55:00;;;;;;;6.80;3.38;;;;;;;;;;4993610;28;92448;-73
2022/08/29 08:57:30;;;;;;;6.57;3.08;;;;;;;;;;4995396;28;92936;-73
2022/08/29 08:59:57;;;;;;;6.13;2.75;;;;;;;;;;4992778;28;92464;-73
2022/08/29 09:02:30;;;;;;;6.97;3.35;;;;;;;;;;4983528;28;94421;-78
2022/08/29 09:04:56;;;;;;;6.95;2.45;;;;;;;;;;4989741;28;96572;-73
2022/08/29 09:07:41;;;;;;;8.57;3.60;;;;;;;;;;4999498;28;92667;-71
2022/08/29 09:10:30;;;;;;;10.15;3.40;;;;;;;;;;5002848;28;94040;-73
2022/08/29 09:13:00;;;;;;;2.70;2.28;;;;;;;;;;4992494;28;93387;-72
2022/08/29 09:15:31;;;;;;;5.50;3.03;;;;;;;;;;4993808;28;92516;-72
2022/08/29 09:18:01;;;;;;;3.75;2.38;;;;;;;;;;4992470;28;93051;-72
2022/08/29 09:20:29;;;;;;;4.35;3.22;;;;;;;;;;4996404;28;92284;-73
2022/08/29 09:23:00;;;;;;;10.38;3.05;;;;;;;;;;4993530;28;93133;-72
2022/08/29 09:25:30;;;;;;;5.32;2.97;;;;;;;;;;4985930;28;94245;-72
2022/08/29 09:27:57;;;;;;;11.45;3.08;;;;;;;;;;4993700;28;92444;-72
2022/08/29 09:30:25;;;;;;;10.52;3.42;;;;;;;;;;4990801;28;97222;-72
2022/08/29 09:33:02;;;;;;;7.70;3.30;;;;;;;;;;4986020;28;94058;-72
2022/08/29 09:35:35;;;;;;;6.03;3.17;;;;;;;;;;4995373;28;92451;-72
2022/08/29 09:38:04;;;;;;;7.00;3.55;;;;;;;;;;4996771;28;93814;-72
2022/08/29 09:40:41;;;;;;;9.43;3.33;;;;;;;;;;4995971;28;93297;-72
2022/08/29 09:43:15;;;;;;;7.45;3.17;;;;;;;;;;4999702;28;92325;-72
2022/08/29 09:46:00;;;;;;;9.68;3.33;;;;;;;;;;4995743;28;94307;-72
2022/08/29 09:48:26;;;;;;;10.23;3.15;;;;;;;;;;4990575;28;91815;-72
2022/08/29 09:51:30;;;;;;;9.25;3.08;;;;;;;;;;4996834;28;92859;-72
2022/08/29 09:54:12;;;;;;;11.10;3.28;;;;;;;;;;4977004;28;93759;-73
2022/08/29 09:57:06;;;;;;;5.25;3.38;;;;;;;;;;4989767;28;94726;-72
2022/08/29 09:59:34;;;;;;;9.13;3.13;;;;;;;;;;4987009;28;96503;-73
2022/08/29 10:02:09;;;;;;;6.55;3.25;;;;;;;;;;4996048;28;94261;-73
2022/08/29 10:04:38;;;;;;;4.30;2.92;;;;;;;;;;4994147;28;94064;-73
2022/08/29 10:07:28;;;;;;;4.72;2.65;;;;;;;;;;4992915;28;93131;-73
2022/08/29 10:09:57;;;;;;;11.15;2.92;;;;;;;;;;4981305;28;92707;-73
2022/08/29 10:12:35;;;;;;;7.75;2.90;;;;;;;;;;4993357;28;93118;-73
2022/08/29 10:15:04;;;;;;;7.45;2.58;;;;;;;;;;4995843;28;93464;-72
2022/08/29 10:20:39;;;;;;;8.23;2.80;;;;;;;;;;4993228;28;93820;-73
2022/08/29 10:23:12;;;;;;;8.15;2.60;;;;;;;;;;4986923;28;96420;-73
2022/08/29 10:25:40;;;;;;;5.75;2.30;;;;;;;;;;4989218;28;92879;-73
2022/08/29 10:28:09;;;;;;;3.08;2.30;;;;;;;;;;4995473;28;93960;-73
2022/08/29 10:30:41;;;;;;;4.40;2.53;;;;;;;;;;4998906;28;94072;-73
2022/08/29 10:33:18;;;;;;;4.93;2.75;;;;;;;;;;4989151;28;93068;-72
2022/08/29 10:35:48;;;;;;;9.98;3.15;;;;;;;;;;4989352;28;94533;-73
2022/08/29 10:38:32;;;;;;;5.20;2.75;;;;;;;;;;4995315;28;92453;-71
2022/08/29 10:41:04;;;;;;;7.95;2.78;;;;;;;;;;4982760;28;92858;-73
2022/08/29 10:43:49;;;;;;;7.40;2.53;;;;;;;;;;4994759;28;94035;-73
2022/08/29 10:46:34;;;;;;;4.93;2.30;;;;;;;;;;4993841;28;92482;-73
2022/08/29 10:49:19;;;;;;;5.85;3.10;;;;;;;;;;4987402;28;95311;-73
2022/08/29 10:51:57;;;;;;;5.32;2.67;;;;;;;;;;4998363;28;93332;-73
2022/08/29 10:54:40;;;;;;;10.00;2.78;;;;;;;;;;4987021;28;93281;-72
2022/08/29 10:57:07;;;;;;;5.75;2.88;;;;;;;;;;4988520;28;94167;-73
2022/08/29 10:59:51;;;;;;;4.28;2.10;;;;;;;;;;4994495;28;92509;-73
2022/08/29 11:02:29;;;;;;;7.05;3.08;;;;;;;;;;4991321;28;94202;-73
2022/08/29 11:04:58;;;;;;;5.97;2.70;;;;;;;;;;4994266;28;94215;-73
2022/08/29 11:07:28;;;;;;;6.85;2.85;;;;;;;;;;4988916;28;93166;-73
2022/08/29 11:10:07;;;;;;;7.40;2.58;;;;;;;;;;4994172;28;92529;-73
2022/08/29 11:12:56;;;;;;;2.92;2.53;;;;;;;;;;4989446;28;93792;-73
2022/08/29 11:15:27;;;;;;;6.85;2.40;;;;;;;;;;4996891;28;94847;-74
2022/08/29 11:18:00;;;;;;;6.53;2.40;;;;;;;;;;4986337;28;94092;-73
2022/08/29 11:20:32;;;;;;;6.85;3.03;;;;;;;;;;4989319;28;92509;-73
2022/08/29 11:23:00;;;;;;;6.53;2.43;;;;;;;;;;4994329;28;93974;-73
2022/08/29 11:25:27;;;;;;;3.80;2.65;;;;;;;;;;4994063;28;94072;-73
2022/08/29 11:28:02;;;;;;;4.78;2.85;;;;;;;;;;4986320;28;93275;-71
2022/08/29 11:30:39;;;;;;;5.93;2.40;;;;;;;;;;4994862;28;93077;-73
2022/08/29 11:33:15;;;;;;;3.85;2.35;;;;;;;;;;4994964;28;93530;-73
2022/08/29 11:35:47;;;;;;;4.82;2.28;;;;;;;;;;4989089;28;92514;-73
2022/08/29 11:38:22;;;;;;;5.47;2.50;;;;;;;;;;4997329;28;92924;-72
2022/08/29 11:41:07;;;;;;;4.97;2.22;;;;;;;;;;4991491;28;94836;-72
2022/08/29 11:43:56;;;;;;;4.93;2.13;;;;;;;;;;4991825;28;96433;-73
2022/08/29 11:46:37;;;;;;;3.83;2.00;;;;;;;;;;4994031;28;94097;-73
2022/08/29 11:49:19;;;;;;;5.85;2.65;;;;;;;;;;4993540;28;92422;-73
2022/08/29 11:51:50;;;;;;;5.47;2.15;;;;;;;;;;4990629;28;94063;-73
2022/08/29 11:54:22;;;;;;;4.18;2.30;;;;;;;;;;4993621;28;93456;-73
2022/08/29 11:56:59;;;;;;;11.05;2.78;;;;;;;;;;4986980;28;92383;-73
2022/08/29 11:59:58;;;;;;;5.15;2.65;;;;;;;;;;4982149;28;93980;-73
2022/08/29 12:02:27;;;;;;;4.10;2.20;;;;;;;;;;4981367;28;94394;-73
2022/08/29 12:04:56;;;;;;;5.90;2.10;;;;;;;;;;4993277;28;93041;-73
2022/08/29 12:07:32;;;;;;;6.57;2.75;;;;;;;;;;4991389;28;95704;-73
2022/08/29 12:10:01;;;;;;;5.18;2.60;;;;;;;;;;4988278;28;92498;-72
2022/08/29 12:12:47;;;;;;;3.75;2.35;;;;;;;;;;4994308;28;93980;-74
2022/08/29 12:15:25;;;;;;;7.40;2.20;;;;;;;;;;4993597;28;94222;-74
2022/08/29 12:17:56;;;;;;;3.28;2.60;;;;;;;;;;4986488;28;92498;-74
2022/08/29 12:20:29;;;;;;;5.93;2.47;;;;;;;;;;4990952;28;93791;-74
2022/08/29 12:22:58;;;;;;;3.05;2.00;;;;;;;;;;4992545;28;93469;-74
2022/08/29 12:25:43;;;;;;;6.32;1.95;;;;;;;;;;4996325;28;91768;-71
2022/08/29 12:28:19;;;;;;;6.20;2.50;;;;;;;;;;4980185;28;93256;-74
2022/08/29 12:30:50;;;;;;;8.55;2.47;;;;;;;;;;4993076;28;92487;-73
2022/08/29 12:33:39;;;;;;;6.10;2.97;;;;;;;;;;4992702;28;94820;-73
2022/08/29 12:36:24;;;;;;;9.82;3.90;;;;;;;;;;4993478;28;94084;-78
2022/08/29 12:39:09;;;;;;;3.88;2.15;;;;;;;;;;4987732;28;92479;-74
2022/08/29 12:41:45;;;;;;;7.22;2.85;;;;;;;;;;4993600;28;93852;-72
2022/08/29 12:44:15;;;;;;;9.55;2.85;;;;;;;;;;4993924;28;94176;-70
2022/08/29 12:46:43;;;;;;;6.65;3.40;;;;;;;;;;4992412;28;92471;-74
2022/08/29 12:49:28;;;;;;;11.18;8.50;;;;;;;;;;4996208;28;92871;-73
2022/08/29 12:51:57;;;;;;;7.20;2.33;;;;;;;;;;4988992;28;91645;-72
2022/08/29 12:54:30;;;;;;;4.03;2.22;;;;;;;;;;4992347;28;95788;-72
2022/08/29 12:56:57;;;;;;;7.18;2.45;;;;;;;;;;4992666;28;93483;-73
2022/08/29 12:59:23;;;;;;;6.10;3.50;;;;;;;;;;4991010;28;94782;-72
2022/08/29 13:01:55;;;;;;;7.13;2.50;;;;;;;;;;4993578;28;95245;-72
2022/08/29 13:04:23;;;;;;;6.60;2.72;;;;;;;;;;4991166;28;94380;-72
2022/08/29 13:06:59;;;;;;;3.25;2.05;;;;;;;;;;4994144;28;93906;-72
2022/08/29 13:09:30;;;;;;;3.40;2.47;;;;;;;;;;4996113;28;93942;-73
2022/08/29 13:12:14;;;;;;;5.90;2.50;;;;;;;;;;4996714;28;92864;-72
2022/08/29 13:14:49;;;;;;;11.25;2.60;;;;;;;;;;4993038;28;94525;-71
2022/08/29 13:17:17;;;;;;;6.47;2.10;;;;;;;;;;4992418;28;93594;-72
2022/08/29 13:20:03;;;;;;;3.40;2.45;;;;;;;;;;4995652;28;92491;-72
2022/08/29 13:22:30;;;;;;;4.22;2.55;;;;;;;;;;4997359;28;92953;-72
2022/08/29 13:25:02;;;;;;;3.22;2.03;;;;;;;;;;4989448;28;95984;-72
2022/08/29 13:27:28;;;;;;;6.18;2.10;;;;;;;;;;4988552;28;92651;-73
2022/08/29 13:29:58;;;;;;;7.93;2.70;;;;;;;;;;4988554;28;93826;-71
2022/08/29 13:32:25;;;;;;;6.57;2.35;;;;;;;;;;4989154;28;94223;-71
2022/08/29 13:34:59;;;;;;;3.78;2.20;;;;;;;;;;4996352;28;92367;-71
2022/08/29 13:37:30;;;;;;;3.83;2.50;;;;;;;;;;4991915;28;94203;-71
2022/08/29 13:40:16;;;;;;;9.10;2.30;;;;;;;;;;4995831;28;92416;-71
2022/08/29 13:42:43;;;;;;;3.53;2.20;;;;;;;;;;4990268;28;91791;-71
2022/08/29 13:45:10;;;;;;;6.93;2.42;;;;;;;;;;4995367;28;93537;-71
2022/08/29 13:47:40;;;;;;;2.13;2.03;;;;;;;;;;4996328;28;92470;-71
2022/08/29 13:50:08;;;;;;;2.85;1.80;;;;;;;;;;4984718;28;96663;-70
2022/08/29 13:52:35;;;;;;;2.70;2.00;;;;;;;;;;4988305;28;94032;-71
2022/08/29 13:55:02;;;;;;;6.45;2.13;;;;;;;;;;4988092;28;94138;-71
2022/08/29 13:57:29;;;;;;;3.22;2.40;;;;;;;;;;4988953;28;94160;-71
2022/08/29 13:59:56;;;;;;;3.88;2.25;;;;;;;;;;4985804;28;93572;-71
2022/08/29 14:02:23;;;;;;;2.53;2.03;;;;;;;;;;4996724;28;94143;-71
2022/08/29 14:04:50;;;;;;;3.55;2.00;;;;;;;;;;4998869;28;94268;-68
2022/08/29 14:07:19;;;;;;;4.50;2.08;;;;;;;;;;4991689;28;93251;-71
2022/08/29 14:09:46;;;;;;;5.80;2.28;;;;;;;;;;4994699;28;92818;-71
2022/08/29 14:12:13;;;;;;;4.70;2.40;;;;;;;;;;4984483;28;94088;-70
2022/08/29 14:14:41;;;;;;;4.85;2.20;;;;;;;;;;4982888;28;94904;-71
2022/08/29 14:17:07;;;;;;;9.60;3.05;;;;;;;;;;4992485;28;95646;-71
2022/08/29 14:19:34;;;;;;;3.60;2.38;;;;;;;;;;4994369;28;92348;-71
2022/08/29 14:22:01;;;;;;;3.40;1.92;;;;;;;;;;4987660;28;94686;-71
2022/08/29 14:24:28;;;;;;;4.03;2.15;;;;;;;;;;4989727;28;94400;-71
2022/08/29 14:26:55;;;;;;;5.78;2.78;;;;;;;;;;4990159;28;92434;-71
2022/08/29 14:29:28;;;;;;;3.60;2.13;;;;;;;;;;4983054;28;94551;-71
2022/08/29 14:31:56;;;;;;;4.70;2.42;;;;;;;;;;4979453;28;93428;-71
2022/08/29 14:34:22;;;;;;;3.15;2.13;;;;;;;;;;4994734;28;92860;-71
2022/08/29 14:36:48;;;;;;;4.43;2.30;;;;;;;;;;4985482;28;93304;-68
2022/08/29 14:39:15;;;;;;;7.75;2.17;;;;;;;;;;4988434;28;95688;-68
2022/08/29 14:41:41;;;;;;;3.92;2.10;;;;;;;;;;4987869;28;96319;-69
2022/08/29 14:44:08;;;;;;;5.93;1.85;;;;;;;;;;4989087;28;94123;-69
2022/08/29 14:46:45;;;;;;;2.92;2.13;;;;;;;;;;4987554;28;93204;-69
2022/08/29 14:49:11;;;;;;;5.72;2.28;;;;;;;;;;4981873;28;93894;-69
2022/08/29 14:51:38;;;;;;;5.47;2.15;;;;;;;;;;4988758;28;93268;-69
2022/08/29 14:54:04;;;;;;;7.47;2.55;;;;;;;;;;4992460;28;92461;-70
2022/08/29 14:56:32;;;;;;;4.43;2.13;;;;;;;;;;4979684;28;93144;-71
2022/08/29 14:59:14;;;;;;;8.35;2.80;;;;;;;;;;4978197;28;94177;-71
2022/08/29 15:01:40;;;;;;;4.00;2.10;;;;;;;;;;4998178;28;92566;-72
2022/08/29 15:04:07;;;;;;;3.42;1.95;;;;;;;;;;4985714;28;95651;-71
2022/08/29 15:06:33;;;;;;;4.53;2.13;;;;;;;;;;4987097;28;92476;-70
2022/08/29 15:09:00;;;;;;;6.97;2.70;;;;;;;;;;4989993;28;94500;-71